sensor_id;sensor_type;location;lat;lon;timestamp;pressure;altitude;pressure_sealevel;temperature;humidity
24160;BME280;62385;41.594;23.808;2023-06-04T00:00:46;95556.13;;;14.83;87.13
24160;BME280;62385;41.594;23.808;2023-06-04T00:03:12;95558.16;;;14.74;87.73
24160;BME280;62385;41.594;23.808;2023-06-04T00:05:37;95561.03;;;14.79;87.28
24160;BME280;62385;41.594;23.808;2023-06-04T00:08:04;95556.81;;;14.63;87.83
24160;BME280;62385;41.594;23.808;2023-06-04T00:10:30;95549.81;;;14.62;87.56
24160;BME280;62385;41.594;23.808;2023-06-04T00:12:56;95549.81;;;14.62;87.23
24160;BME280;62385;41.594;23.808;2023-06-04T00:15:22;95547.00;;;14.70;86.83
24160;BME280;62385;41.594;23.808;2023-06-04T00:17:48;95549.69;;;14.70;86.77
24160;BME280;62385;41.594;23.808;2023-06-04T00:20:13;95551.34;;;14.71;86.70
24160;BME280;62385;41.594;23.808;2023-06-04T00:22:39;95546.97;;;14.64;86.86
24160;BME280;62385;41.594;23.808;2023-06-04T00:25:08;95547.94;;;14.56;86.94
24160;BME280;62385;41.594;23.808;2023-06-04T00:27:34;95545.44;;;14.83;86.38
24160;BME280;62385;41.594;23.808;2023-06-04T00:29:59;95539.19;;;15.03;85.74
24160;BME280;62385;41.594;23.808;2023-06-04T00:32:25;95540.59;;;14.93;86.15
24160;BME280;62385;41.594;23.808;2023-06-04T00:34:52;95539.91;;;14.84;85.81
24160;BME280;62385;41.594;23.808;2023-06-04T00:37:18;95550.78;;;14.83;85.80
24160;BME280;62385;41.594;23.808;2023-06-04T00:39:43;95558.97;;;14.74;85.78
24160;BME280;62385;41.594;23.808;2023-06-04T00:42:09;95556.44;;;14.66;86.34
24160;BME280;62385;41.594;23.808;2023-06-04T00:44:34;95556.56;;;14.58;85.18
24160;BME280;62385;41.594;23.808;2023-06-04T00:47:02;95564.25;;;14.40;85.92
24160;BME280;62385;41.594;23.808;2023-06-04T00:49:27;95554.69;;;14.31;86.28
24160;BME280;62385;41.594;23.808;2023-06-04T00:51:54;95551.56;;;14.27;86.45
24160;BME280;62385;41.594;23.808;2023-06-04T00:54:20;95568.03;;;14.31;86.62
24160;BME280;62385;41.594;23.808;2023-06-04T00:56:47;95565.56;;;14.51;86.59
24160;BME280;62385;41.594;23.808;2023-06-04T00:59:12;95561.72;;;14.60;86.52
24160;BME280;62385;41.594;23.808;2023-06-04T01:01:51;95568.44;;;14.49;86.32
24160;BME280;62385;41.594;23.808;2023-06-04T01:04:30;95564.88;;;14.42;85.94
24160;BME280;62385;41.594;23.808;2023-06-04T01:07:00;95561.41;;;14.27;86.64
24160;BME280;62385;41.594;23.808;2023-06-04T01:09:28;95565.94;;;14.26;86.86
24160;BME280;62385;41.594;23.808;2023-06-04T01:11:54;95569.34;;;14.20;88.09
24160;BME280;62385;41.594;23.808;2023-06-04T01:14:25;95569.69;;;14.11;87.30
24160;BME280;62385;41.594;23.808;2023-06-04T01:17:11;95565.78;;;13.92;87.57
24160;BME280;62385;41.594;23.808;2023-06-04T01:20:01;95566.44;;;13.94;87.44
24160;BME280;62385;41.594;23.808;2023-06-04T01:25:34;95567.78;;;14.05;87.45
24160;BME280;62385;41.594;23.808;2023-06-04T01:28:03;95566.94;;;14.04;87.33
24160;BME280;62385;41.594;23.808;2023-06-04T01:30:35;95571.00;;;14.00;87.33
24160;BME280;62385;41.594;23.808;2023-06-04T01:33:02;95571.06;;;13.85;87.96
24160;BME280;62385;41.594;23.808;2023-06-04T01:35:29;95571.19;;;13.63;88.16
24160;BME280;62385;41.594;23.808;2023-06-04T01:37:57;95570.09;;;13.72;88.29
24160;BME280;62385;41.594;23.808;2023-06-04T01:40:23;95566.75;;;13.84;88.06
24160;BME280;62385;41.594;23.808;2023-06-04T01:42:50;95559.84;;;14.11;87.36
24160;BME280;62385;41.594;23.808;2023-06-04T01:45:17;95567.50;;;14.36;86.33
24160;BME280;62385;41.594;23.808;2023-06-04T01:47:42;95570.66;;;14.46;86.11
24160;BME280;62385;41.594;23.808;2023-06-04T01:50:08;95571.97;;;14.14;86.22
24160;BME280;62385;41.594;23.808;2023-06-04T01:52:35;95578.97;;;14.15;86.17
24160;BME280;62385;41.594;23.808;2023-06-04T01:55:05;95584.13;;;14.38;86.50
24160;BME280;62385;41.594;23.808;2023-06-04T01:57:33;95587.91;;;14.43;86.12
24160;BME280;62385;41.594;23.808;2023-06-04T01:59:59;95584.56;;;14.62;84.80
24160;BME280;62385;41.594;23.808;2023-06-04T02:02:26;95588.34;;;14.47;86.05
24160;BME280;62385;41.594;23.808;2023-06-04T02:04:52;95590.81;;;14.48;85.91
24160;BME280;62385;41.594;23.808;2023-06-04T02:07:19;95591.53;;;14.36;86.35
24160;BME280;62385;41.594;23.808;2023-06-04T02:09:46;95598.28;;;14.17;86.08
24160;BME280;62385;41.594;23.808;2023-06-04T02:12:13;95608.78;;;14.18;86.49
24160;BME280;62385;41.594;23.808;2023-06-04T02:14:40;95604.41;;;14.11;87.20
24160;BME280;62385;41.594;23.808;2023-06-04T02:17:07;95615.50;;;13.93;86.63
24160;BME280;62385;41.594;23.808;2023-06-04T02:19:41;95624.31;;;13.43;88.34
24160;BME280;62385;41.594;23.808;2023-06-04T02:22:13;95620.44;;;13.60;88.10
24160;BME280;62385;41.594;23.808;2023-06-04T02:24:39;95618.16;;;13.93;86.74
24160;BME280;62385;41.594;23.808;2023-06-04T02:27:11;95625.38;;;13.78;87.01
24160;BME280;62385;41.594;23.808;2023-06-04T02:29:38;95634.56;;;13.90;86.87
24160;BME280;62385;41.594;23.808;2023-06-04T02:32:04;95632.34;;;13.94;86.57
24160;BME280;62385;41.594;23.808;2023-06-04T02:34:30;95628.38;;;14.25;84.88
24160;BME280;62385;41.594;23.808;2023-06-04T02:36:56;95628.94;;;14.21;85.38
24160;BME280;62385;41.594;23.808;2023-06-04T02:39:21;95635.72;;;14.02;85.97
24160;BME280;62385;41.594;23.808;2023-06-04T02:41:47;95635.38;;;13.91;86.76
24160;BME280;62385;41.594;23.808;2023-06-04T02:44:13;95637.19;;;14.05;86.91
24160;BME280;62385;41.594;23.808;2023-06-04T02:46:39;95633.44;;;13.99;86.99
24160;BME280;62385;41.594;23.808;2023-06-04T02:49:05;95629.31;;;14.18;86.63
24160;BME280;62385;41.594;23.808;2023-06-04T02:51:32;95630.31;;;14.17;85.80
24160;BME280;62385;41.594;23.808;2023-06-04T02:53:58;95628.31;;;14.19;86.47
24160;BME280;62385;41.594;23.808;2023-06-04T02:56:24;95633.69;;;14.25;86.78
24160;BME280;62385;41.594;23.808;2023-06-04T02:58:51;95637.38;;;14.39;85.64
24160;BME280;62385;41.594;23.808;2023-06-04T03:01:19;95641.78;;;14.11;86.08
24160;BME280;62385;41.594;23.808;2023-06-04T03:03:46;95649.84;;;13.81;86.82
24160;BME280;62385;41.594;23.808;2023-06-04T03:06:12;95653.00;;;13.70;87.29
24160;BME280;62385;41.594;23.808;2023-06-04T03:08:40;95660.41;;;13.75;87.93
24160;BME280;62385;41.594;23.808;2023-06-04T03:11:06;95661.25;;;13.90;87.63
24160;BME280;62385;41.594;23.808;2023-06-04T03:13:32;95652.41;;;14.25;86.07
24160;BME280;62385;41.594;23.808;2023-06-04T03:15:58;95646.78;;;14.35;86.28
24160;BME280;62385;41.594;23.808;2023-06-04T03:18:29;95651.00;;;14.65;86.17
24160;BME280;62385;41.594;23.808;2023-06-04T03:20:56;95650.91;;;15.08;84.80
24160;BME280;62385;41.594;23.808;2023-06-04T03:23:22;95663.94;;;14.90;85.72
24160;BME280;62385;41.594;23.808;2023-06-04T03:25:48;95663.72;;;14.63;86.57
24160;BME280;62385;41.594;23.808;2023-06-04T03:28:13;95664.22;;;14.73;87.08
24160;BME280;62385;41.594;23.808;2023-06-04T03:30:42;95659.50;;;14.54;87.58
24160;BME280;62385;41.594;23.808;2023-06-04T03:33:08;95666.44;;;14.13;88.87
24160;BME280;62385;41.594;23.808;2023-06-04T03:35:52;95667.34;;;14.56;88.05
24160;BME280;62385;41.594;23.808;2023-06-04T03:38:19;95668.31;;;14.69;86.85
24160;BME280;62385;41.594;23.808;2023-06-04T03:40:46;95676.06;;;14.64;87.77
24160;BME280;62385;41.594;23.808;2023-06-04T03:43:13;95670.75;;;14.50;88.18
24160;BME280;62385;41.594;23.808;2023-06-04T03:45:40;95664.94;;;14.61;88.17
24160;BME280;62385;41.594;23.808;2023-06-04T03:48:07;95679.69;;;14.78;88.50
24160;BME280;62385;41.594;23.808;2023-06-04T03:50:35;95674.75;;;15.03;87.42
24160;BME280;62385;41.594;23.808;2023-06-04T03:53:01;95674.97;;;15.08;86.88
24160;BME280;62385;41.594;23.808;2023-06-04T03:55:29;95665.56;;;15.12;86.63
24160;BME280;62385;41.594;23.808;2023-06-04T03:57:59;95669.91;;;14.92;88.12
24160;BME280;62385;41.594;23.808;2023-06-04T04:00:25;95677.19;;;14.98;87.63
24160;BME280;62385;41.594;23.808;2023-06-04T04:02:54;95680.50;;;14.78;88.31
24160;BME280;62385;41.594;23.808;2023-06-04T04:05:25;95685.69;;;15.08;87.71
24160;BME280;62385;41.594;23.808;2023-06-04T04:07:52;95686.31;;;15.10;87.56
24160;BME280;62385;41.594;23.808;2023-06-04T04:10:22;95682.69;;;15.17;86.86
24160;BME280;62385;41.594;23.808;2023-06-04T04:12:48;95690.88;;;14.88;86.49
24160;BME280;62385;41.594;23.808;2023-06-04T04:15:15;95691.81;;;14.81;86.88
24160;BME280;62385;41.594;23.808;2023-06-04T04:17:42;95690.72;;;14.96;87.27
24160;BME280;62385;41.594;23.808;2023-06-04T04:20:09;95701.16;;;15.12;84.55
24160;BME280;62385;41.594;23.808;2023-06-04T04:22:41;95687.00;;;15.46;83.10
24160;BME280;62385;41.594;23.808;2023-06-04T04:25:10;95702.59;;;15.64;81.21
24160;BME280;62385;41.594;23.808;2023-06-04T04:27:36;95694.31;;;15.59;80.52
24160;BME280;62385;41.594;23.808;2023-06-04T04:30:08;95703.03;;;15.67;81.56
24160;BME280;62385;41.594;23.808;2023-06-04T04:32:36;95704.53;;;15.77;80.83
24160;BME280;62385;41.594;23.808;2023-06-04T04:35:06;95709.69;;;15.22;82.36
24160;BME280;62385;41.594;23.808;2023-06-04T04:37:36;95707.53;;;15.39;81.81
24160;BME280;62385;41.594;23.808;2023-06-04T04:40:06;95707.88;;;15.57;81.30
24160;BME280;62385;41.594;23.808;2023-06-04T04:42:52;95714.81;;;15.24;82.99
24160;BME280;62385;41.594;23.808;2023-06-04T04:45:19;95716.81;;;15.64;82.19
24160;BME280;62385;41.594;23.808;2023-06-04T04:47:47;95717.06;;;15.48;82.94
24160;BME280;62385;41.594;23.808;2023-06-04T04:50:12;95714.34;;;15.69;82.50
24160;BME280;62385;41.594;23.808;2023-06-04T04:52:38;95720.41;;;15.50;83.88
24160;BME280;62385;41.594;23.808;2023-06-04T04:55:06;95719.00;;;15.89;82.61
24160;BME280;62385;41.594;23.808;2023-06-04T04:57:33;95719.94;;;15.75;83.27
24160;BME280;62385;41.594;23.808;2023-06-04T04:59:59;95726.97;;;15.82;83.54
24160;BME280;62385;41.594;23.808;2023-06-04T05:02:24;95724.47;;;15.74;83.88
24160;BME280;62385;41.594;23.808;2023-06-04T05:04:51;95729.97;;;15.66;82.89
24160;BME280;62385;41.594;23.808;2023-06-04T05:07:17;95724.16;;;15.56;84.78
24160;BME280;62385;41.594;23.808;2023-06-04T05:09:45;95731.47;;;15.75;84.77
24160;BME280;62385;41.594;23.808;2023-06-04T05:12:11;95737.09;;;15.87;84.45
24160;BME280;62385;41.594;23.808;2023-06-04T05:14:37;95740.16;;;15.77;84.08
24160;BME280;62385;41.594;23.808;2023-06-04T05:17:03;95735.41;;;15.79;84.61
24160;BME280;62385;41.594;23.808;2023-06-04T05:19:48;95738.75;;;15.88;83.44
24160;BME280;62385;41.594;23.808;2023-06-04T05:22:14;95735.16;;;16.08;83.26
24160;BME280;62385;41.594;23.808;2023-06-04T05:24:45;95738.84;;;16.01;84.19
24160;BME280;62385;41.594;23.808;2023-06-04T05:27:11;95738.53;;;16.24;83.08
24160;BME280;62385;41.594;23.808;2023-06-04T05:29:37;95744.53;;;16.26;83.22
24160;BME280;62385;41.594;23.808;2023-06-04T05:32:03;95739.16;;;16.26;83.19
24160;BME280;62385;41.594;23.808;2023-06-04T05:34:29;95742.03;;;16.24;82.73
24160;BME280;62385;41.594;23.808;2023-06-04T05:36:55;95748.75;;;16.48;82.46
24160;BME280;62385;41.594;23.808;2023-06-04T05:39:22;95747.09;;;16.53;82.00
24160;BME280;62385;41.594;23.808;2023-06-04T05:42:10;95758.09;;;16.24;82.91
24160;BME280;62385;41.594;23.808;2023-06-04T05:44:37;95751.06;;;16.57;82.65
24160;BME280;62385;41.594;23.808;2023-06-04T05:47:03;95756.00;;;16.60;82.03
24160;BME280;62385;41.594;23.808;2023-06-04T05:49:30;95753.47;;;16.52;81.63
24160;BME280;62385;41.594;23.808;2023-06-04T05:51:58;95759.66;;;16.40;80.97
24160;BME280;62385;41.594;23.808;2023-06-04T05:54:23;95762.47;;;16.79;80.95
24160;BME280;62385;41.594;23.808;2023-06-04T05:56:50;95779.22;;;16.94;80.50
24160;BME280;62385;41.594;23.808;2023-06-04T05:59:16;95776.78;;;17.06;80.63
24160;BME280;62385;41.594;23.808;2023-06-04T06:01:41;95782.50;;;16.90;80.24
24160;BME280;62385;41.594;23.808;2023-06-04T06:04:10;95771.38;;;16.93;80.70
24160;BME280;62385;41.594;23.808;2023-06-04T06:06:36;95778.00;;;16.97;80.11
24160;BME280;62385;41.594;23.808;2023-06-04T06:09:02;95781.28;;;16.92;80.83
24160;BME280;62385;41.594;23.808;2023-06-04T06:11:29;95775.53;;;17.15;79.73
24160;BME280;62385;41.594;23.808;2023-06-04T06:13:55;95776.78;;;17.13;79.67
24160;BME280;62385;41.594;23.808;2023-06-04T06:16:21;95773.91;;;17.40;78.57
24160;BME280;62385;41.594;23.808;2023-06-04T06:18:46;95779.91;;;17.36;79.46
24160;BME280;62385;41.594;23.808;2023-06-04T06:21:12;95780.16;;;17.67;77.82
24160;BME280;62385;41.594;23.808;2023-06-04T06:23:39;95778.25;;;17.48;77.71
24160;BME280;62385;41.594;23.808;2023-06-04T06:26:05;95780.53;;;17.44;77.54
24160;BME280;62385;41.594;23.808;2023-06-04T06:28:39;95774.91;;;18.25;74.91
24160;BME280;62385;41.594;23.808;2023-06-04T06:31:05;95768.41;;;18.59;73.91
24160;BME280;62385;41.594;23.808;2023-06-04T06:33:32;95771.75;;;18.41;74.65
24160;BME280;62385;41.594;23.808;2023-06-04T06:35:57;95769.19;;;18.66;73.79
24160;BME280;62385;41.594;23.808;2023-06-04T06:38:26;95776.88;;;19.00;73.36
24160;BME280;62385;41.594;23.808;2023-06-04T06:40:52;95783.63;;;18.78;73.46
24160;BME280;62385;41.594;23.808;2023-06-04T06:43:18;95778.44;;;18.76;73.76
24160;BME280;62385;41.594;23.808;2023-06-04T06:45:44;95775.03;;;19.01;73.40
24160;BME280;62385;41.594;23.808;2023-06-04T06:48:11;95779.25;;;18.83;74.11
24160;BME280;62385;41.594;23.808;2023-06-04T06:50:37;95770.63;;;19.38;70.94
24160;BME280;62385;41.594;23.808;2023-06-04T06:53:03;95785.94;;;19.12;72.89
24160;BME280;62385;41.594;23.808;2023-06-04T06:55:28;95788.03;;;19.04;70.84
24160;BME280;62385;41.594;23.808;2023-06-04T06:57:54;95789.84;;;19.16;71.51
24160;BME280;62385;41.594;23.808;2023-06-04T07:00:19;95778.31;;;19.90;71.15
24160;BME280;62385;41.594;23.808;2023-06-04T07:02:45;95769.31;;;19.96;68.33
24160;BME280;62385;41.594;23.808;2023-06-04T07:05:11;95780.50;;;20.00;68.93
24160;BME280;62385;41.594;23.808;2023-06-04T07:07:37;95779.97;;;19.91;68.88
24160;BME280;62385;41.594;23.808;2023-06-04T07:10:03;95772.06;;;19.40;71.62
24160;BME280;62385;41.594;23.808;2023-06-04T07:12:29;95770.44;;;19.89;70.35
24160;BME280;62385;41.594;23.808;2023-06-04T07:14:55;95770.81;;;19.43;70.30
24160;BME280;62385;41.594;23.808;2023-06-04T07:17:21;95770.97;;;19.97;70.17
24160;BME280;62385;41.594;23.808;2023-06-04T07:19:47;95774.91;;;20.19;68.76
24160;BME280;62385;41.594;23.808;2023-06-04T07:22:13;95779.56;;;20.12;69.60
24160;BME280;62385;41.594;23.808;2023-06-04T07:24:42;95780.22;;;20.33;67.54
24160;BME280;62385;41.594;23.808;2023-06-04T07:27:14;95776.22;;;20.35;66.74
24160;BME280;62385;41.594;23.808;2023-06-04T07:29:43;95781.09;;;20.45;67.71
24160;BME280;62385;41.594;23.808;2023-06-04T07:32:11;95779.31;;;20.57;67.79
24160;BME280;62385;41.594;23.808;2023-06-04T07:34:39;95788.66;;;20.36;69.18
24160;BME280;62385;41.594;23.808;2023-06-04T07:37:05;95791.22;;;20.49;69.56
24160;BME280;62385;41.594;23.808;2023-06-04T07:39:32;95793.16;;;20.42;68.62
24160;BME280;62385;41.594;23.808;2023-06-04T07:41:58;95794.56;;;20.63;68.84
24160;BME280;62385;41.594;23.808;2023-06-04T07:44:23;95786.94;;;20.78;68.10
24160;BME280;62385;41.594;23.808;2023-06-04T07:46:49;95785.84;;;20.97;67.22
24160;BME280;62385;41.594;23.808;2023-06-04T07:49:16;95791.75;;;20.58;69.11
24160;BME280;62385;41.594;23.808;2023-06-04T07:51:41;95787.75;;;20.60;68.93
24160;BME280;62385;41.594;23.808;2023-06-04T07:54:08;95791.00;;;20.08;70.25
24160;BME280;62385;41.594;23.808;2023-06-04T07:56:34;95794.19;;;20.59;69.24
24160;BME280;62385;41.594;23.808;2023-06-04T07:59:00;95794.28;;;20.53;69.48
24160;BME280;62385;41.594;23.808;2023-06-04T08:01:26;95796.94;;;20.16;69.14
24160;BME280;62385;41.594;23.808;2023-06-04T08:03:51;95792.25;;;20.05;69.28
24160;BME280;62385;41.594;23.808;2023-06-04T08:06:17;95800.94;;;20.68;68.69
24160;BME280;62385;41.594;23.808;2023-06-04T08:08:43;95801.41;;;20.29;70.04
24160;BME280;62385;41.594;23.808;2023-06-04T08:11:14;95791.97;;;20.75;68.16
24160;BME280;62385;41.594;23.808;2023-06-04T08:13:40;95794.84;;;20.91;67.16
24160;BME280;62385;41.594;23.808;2023-06-04T08:16:07;95790.47;;;20.60;68.06
24160;BME280;62385;41.594;23.808;2023-06-04T08:18:33;95782.94;;;20.62;67.55
24160;BME280;62385;41.594;23.808;2023-06-04T08:20:58;95801.50;;;20.16;69.74
24160;BME280;62385;41.594;23.808;2023-06-04T08:23:24;95787.44;;;20.50;68.39
24160;BME280;62385;41.594;23.808;2023-06-04T08:26:08;95787.03;;;20.53;69.26
24160;BME280;62385;41.594;23.808;2023-06-04T08:28:34;95790.47;;;21.27;66.69
24160;BME280;62385;41.594;23.808;2023-06-04T08:30:59;95796.34;;;21.35;64.35
24160;BME280;62385;41.594;23.808;2023-06-04T08:33:25;95790.09;;;21.05;64.91
24160;BME280;62385;41.594;23.808;2023-06-04T08:35:54;95785.59;;;21.47;64.50
24160;BME280;62385;41.594;23.808;2023-06-04T08:38:20;95784.66;;;21.53;61.09
24160;BME280;62385;41.594;23.808;2023-06-04T08:40:49;95785.25;;;20.95;62.53
24160;BME280;62385;41.594;23.808;2023-06-04T08:43:16;95783.34;;;20.96;63.37
24160;BME280;62385;41.594;23.808;2023-06-04T08:45:42;95783.59;;;21.12;63.33
24160;BME280;62385;41.594;23.808;2023-06-04T08:48:12;95772.75;;;21.31;62.73
24160;BME280;62385;41.594;23.808;2023-06-04T08:50:39;95771.84;;;21.37;61.75
24160;BME280;62385;41.594;23.808;2023-06-04T08:53:07;95779.94;;;20.89;62.90
24160;BME280;62385;41.594;23.808;2023-06-04T08:55:34;95765.13;;;21.09;63.75
24160;BME280;62385;41.594;23.808;2023-06-04T08:58:00;95767.25;;;20.89;62.76
24160;BME280;62385;41.594;23.808;2023-06-04T09:00:27;95769.44;;;21.29;61.45
24160;BME280;62385;41.594;23.808;2023-06-04T09:02:52;95761.44;;;21.75;64.26
24160;BME280;62385;41.594;23.808;2023-06-04T09:05:22;95764.47;;;21.79;59.85
24160;BME280;62385;41.594;23.808;2023-06-04T09:07:48;95770.72;;;21.91;61.39
24160;BME280;62385;41.594;23.808;2023-06-04T09:10:18;95760.06;;;22.07;59.61
24160;BME280;62385;41.594;23.808;2023-06-04T09:12:47;95760.94;;;21.67;58.89
24160;BME280;62385;41.594;23.808;2023-06-04T09:15:13;95763.50;;;22.03;55.94
24160;BME280;62385;41.594;23.808;2023-06-04T09:17:39;95764.66;;;22.30;57.03
24160;BME280;62385;41.594;23.808;2023-06-04T09:20:05;95767.94;;;22.21;57.21
24160;BME280;62385;41.594;23.808;2023-06-04T09:22:37;95762.06;;;22.00;59.88
24160;BME280;62385;41.594;23.808;2023-06-04T09:25:06;95765.50;;;22.19;58.54
24160;BME280;62385;41.594;23.808;2023-06-04T09:27:39;95762.16;;;22.40;58.62
24160;BME280;62385;41.594;23.808;2023-06-04T09:30:08;95761.19;;;22.58;58.85
24160;BME280;62385;41.594;23.808;2023-06-04T09:32:34;95754.09;;;22.80;54.99
24160;BME280;62385;41.594;23.808;2023-06-04T09:35:18;95748.63;;;22.52;58.49
24160;BME280;62385;41.594;23.808;2023-06-04T09:37:55;95740.75;;;22.90;56.48
24160;BME280;62385;41.594;23.808;2023-06-04T09:40:21;95745.56;;;23.00;57.02
24160;BME280;62385;41.594;23.808;2023-06-04T09:42:49;95748.34;;;22.77;58.44
24160;BME280;62385;41.594;23.808;2023-06-04T09:45:32;95743.06;;;22.70;59.34
24160;BME280;62385;41.594;23.808;2023-06-04T09:47:59;95748.47;;;23.10;55.41
24160;BME280;62385;41.594;23.808;2023-06-04T09:50:26;95740.97;;;23.00;56.24
24160;BME280;62385;41.594;23.808;2023-06-04T09:52:53;95740.22;;;22.77;57.52
24160;BME280;62385;41.594;23.808;2023-06-04T09:55:19;95740.00;;;23.23;55.58
24160;BME280;62385;41.594;23.808;2023-06-04T09:57:49;95736.59;;;22.99;58.29
24160;BME280;62385;41.594;23.808;2023-06-04T10:00:19;95748.00;;;22.73;57.11
24160;BME280;62385;41.594;23.808;2023-06-04T10:02:48;95738.91;;;22.79;57.50
24160;BME280;62385;41.594;23.808;2023-06-04T10:05:15;95736.22;;;22.79;56.77
24160;BME280;62385;41.594;23.808;2023-06-04T10:07:43;95731.53;;;23.31;57.33
24160;BME280;62385;41.594;23.808;2023-06-04T10:10:15;95733.75;;;23.06;56.31
24160;BME280;62385;41.594;23.808;2023-06-04T10:12:42;95722.28;;;23.16;56.02
24160;BME280;62385;41.594;23.808;2023-06-04T10:15:12;95727.44;;;23.45;56.52
24160;BME280;62385;41.594;23.808;2023-06-04T10:17:40;95732.88;;;23.79;54.76
24160;BME280;62385;41.594;23.808;2023-06-04T10:20:13;95713.94;;;24.34;53.25
24160;BME280;62385;41.594;23.808;2023-06-04T10:22:41;95723.22;;;22.93;55.03
24160;BME280;62385;41.594;23.808;2023-06-04T10:25:08;95710.31;;;24.28;55.53
24160;BME280;62385;41.594;23.808;2023-06-04T10:27:35;95717.41;;;23.96;56.62
24160;BME280;62385;41.594;23.808;2023-06-04T10:30:03;95708.97;;;23.92;55.73
24160;BME280;62385;41.594;23.808;2023-06-04T10:32:30;95706.97;;;23.38;54.99
24160;BME280;62385;41.594;23.808;2023-06-04T10:34:56;95712.06;;;24.18;54.37
24160;BME280;62385;41.594;23.808;2023-06-04T10:37:24;95713.53;;;23.42;52.41
24160;BME280;62385;41.594;23.808;2023-06-04T10:39:56;95704.00;;;24.23;53.98
24160;BME280;62385;41.594;23.808;2023-06-04T10:42:42;95700.69;;;24.38;52.98
24160;BME280;62385;41.594;23.808;2023-06-04T10:45:09;95707.81;;;24.65;51.85
24160;BME280;62385;41.594;23.808;2023-06-04T10:47:38;95713.97;;;24.01;50.91
24160;BME280;62385;41.594;23.808;2023-06-04T10:50:10;95710.94;;;23.47;51.03
24160;BME280;62385;41.594;23.808;2023-06-04T10:52:51;95707.25;;;23.53;50.84
24160;BME280;62385;41.594;23.808;2023-06-04T10:55:16;95706.78;;;23.56;51.44
24160;BME280;62385;41.594;23.808;2023-06-04T10:58:02;95696.25;;;23.76;50.62
24160;BME280;62385;41.594;23.808;2023-06-04T11:03:06;95699.69;;;24.27;51.53
24160;BME280;62385;41.594;23.808;2023-06-04T11:05:41;95691.34;;;24.72;51.73
24160;BME280;62385;41.594;23.808;2023-06-04T11:08:12;95691.34;;;24.72;51.09
24160;BME280;62385;41.594;23.808;2023-06-04T11:10:42;95696.97;;;25.14;51.08
24160;BME280;62385;41.594;23.808;2023-06-04T11:13:08;95697.38;;;23.97;50.57
24160;BME280;62385;41.594;23.808;2023-06-04T11:15:52;95699.59;;;24.60;51.11
24160;BME280;62385;41.594;23.808;2023-06-04T11:18:20;95700.78;;;25.13;50.45
24160;BME280;62385;41.594;23.808;2023-06-04T11:20:58;95696.69;;;24.45;49.70
24160;BME280;62385;41.594;23.808;2023-06-04T11:23:24;95697.34;;;24.30;50.01
24160;BME280;62385;41.594;23.808;2023-06-04T11:25:52;95691.00;;;25.44;49.33
24160;BME280;62385;41.594;23.808;2023-06-04T11:28:18;95699.97;;;26.08;48.66
24160;BME280;62385;41.594;23.808;2023-06-04T11:31:05;95697.19;;;26.40;47.85
24160;BME280;62385;41.594;23.808;2023-06-04T11:33:47;95699.13;;;24.68;49.45
24160;BME280;62385;41.594;23.808;2023-06-04T11:36:29;95702.38;;;25.14;49.52
24160;BME280;62385;41.594;23.808;2023-06-04T11:38:57;95703.03;;;25.85;50.45
24160;BME280;62385;41.594;23.808;2023-06-04T11:41:24;95708.50;;;25.53;49.65
24160;BME280;62385;41.594;23.808;2023-06-04T11:43:51;95696.81;;;26.26;48.04
24160;BME280;62385;41.594;23.808;2023-06-04T11:46:16;95700.13;;;25.91;49.39
24160;BME280;62385;41.594;23.808;2023-06-04T11:48:42;95701.97;;;25.27;51.75
24160;BME280;62385;41.594;23.808;2023-06-04T11:51:08;95698.34;;;24.90;51.90
24160;BME280;62385;41.594;23.808;2023-06-04T11:53:36;95703.38;;;24.81;52.23
24160;BME280;62385;41.594;23.808;2023-06-04T11:56:02;95710.22;;;24.62;52.13
24160;BME280;62385;41.594;23.808;2023-06-04T11:58:28;95714.91;;;24.28;51.94
24160;BME280;62385;41.594;23.808;2023-06-04T12:00:55;95706.59;;;24.78;51.96
24160;BME280;62385;41.594;23.808;2023-06-04T12:03:35;95721.41;;;24.27;53.54
24160;BME280;62385;41.594;23.808;2023-06-04T12:06:19;95722.84;;;23.96;52.67
24160;BME280;62385;41.594;23.808;2023-06-04T12:08:55;95728.84;;;23.81;53.83
24160;BME280;62385;41.594;23.808;2023-06-04T12:11:24;95735.03;;;23.77;53.58
24160;BME280;62385;41.594;23.808;2023-06-04T12:13:53;95737.56;;;23.22;55.62
24160;BME280;62385;41.594;23.808;2023-06-04T12:16:20;95735.72;;;23.39;54.90
24160;BME280;62385;41.594;23.808;2023-06-04T12:18:45;95745.53;;;22.72;56.30
24160;BME280;62385;41.594;23.808;2023-06-04T12:21:21;95757.44;;;22.99;57.67
24160;BME280;62385;41.594;23.808;2023-06-04T12:24:11;95759.66;;;22.50;57.59
24160;BME280;62385;41.594;23.808;2023-06-04T12:26:38;95760.72;;;22.73;58.50
24160;BME280;62385;41.594;23.808;2023-06-04T12:29:17;95766.06;;;22.21;59.89
24160;BME280;62385;41.594;23.808;2023-06-04T12:31:46;95769.47;;;21.93;62.12
24160;BME280;62385;41.594;23.808;2023-06-04T12:34:15;95784.75;;;21.46;67.48
24160;BME280;62385;41.594;23.808;2023-06-04T12:36:43;95787.19;;;21.06;69.90
24160;BME280;62385;41.594;23.808;2023-06-04T12:39:08;95802.19;;;20.30;72.86
24160;BME280;62385;41.594;23.808;2023-06-04T12:41:34;95803.59;;;19.89;73.27
24160;BME280;62385;41.594;23.808;2023-06-04T12:44:00;95810.19;;;19.93;74.41
24160;BME280;62385;41.594;23.808;2023-06-04T12:46:27;95801.84;;;19.76;73.07
24160;BME280;62385;41.594;23.808;2023-06-04T12:48:53;95798.47;;;19.56;74.82
24160;BME280;62385;41.594;23.808;2023-06-04T12:51:20;95811.84;;;19.45;74.54
24160;BME280;62385;41.594;23.808;2023-06-04T12:53:46;95816.59;;;19.74;73.26
24160;BME280;62385;41.594;23.808;2023-06-04T12:56:13;95826.69;;;19.54;74.73
24160;BME280;62385;41.594;23.808;2023-06-04T12:58:39;95825.13;;;19.33;75.16
24160;BME280;62385;41.594;23.808;2023-06-04T13:01:05;95826.16;;;18.94;73.08